sensor_id;sensor_type;location;lat;lon;timestamp;P1;durP1;ratioP1;P2;durP2;ratioP2
33993;SDS011;20673;48.980;8.138;2023-07-28T00:00:13;4.92;;;3.35;;
33993;SDS011;20673;48.980;8.138;2023-07-28T00:02:39;3.58;;;2.98;;
33993;SDS011;20673;48.980;8.138;2023-07-28T00:05:05;3.85;;;2.80;;
33993;SDS011;20673;48.980;8.138;2023-07-28T00:07:32;4.35;;;2.92;;
33993;SDS011;20673;48.980;8.138;2023-07-28T00:10:00;4.15;;;3.00;;
33993;SDS011;20673;48.980;8.138;2023-07-28T00:12:26;4.97;;;3.58;;
33993;SDS011;20673;48.980;8.138;2023-07-28T00:14:52;3.92;;;3.42;;
33993;SDS011;20673;48.980;8.138;2023-07-28T00:17:18;4.85;;;3.40;;
33993;SDS011;20673;48.980;8.138;2023-07-28T00:19:44;4.58;;;2.92;;
33993;SDS011;20673;48.980;8.138;2023-07-28T00:22:10;4.50;;;3.85;;
33993;SDS011;20673;48.980;8.138;2023-07-28T00:24:36;4.03;;;3.17;;
33993;SDS011;20673;48.980;8.138;2023-07-28T00:27:03;5.42;;;3.15;;
33993;SDS011;20673;48.980;8.138;2023-07-28T00:29:29;5.97;;;3.30;;
33993;SDS011;20673;48.980;8.138;2023-07-28T00:31:55;3.70;;;2.87;;
33993;SDS011;20673;48.980;8.138;2023-07-28T00:34:21;3.92;;;2.87;;
33993;SDS011;20673;48.980;8.138;2023-07-28T00:36:48;6.08;;;3.37;;
33993;SDS011;20673;48.980;8.138;2023-07-28T00:39:14;7.00;;;3.05;;
33993;SDS011;20673;48.980;8.138;2023-07-28T00:41:40;6.83;;;3.17;;
33993;SDS011;20673;48.980;8.138;2023-07-28T00:44:06;6.78;;;3.45;;
33993;SDS011;20673;48.980;8.138;2023-07-28T00:46:32;3.20;;;2.52;;
33993;SDS011;20673;48.980;8.138;2023-07-28T00:48:58;4.37;;;2.83;;
33993;SDS011;20673;48.980;8.138;2023-07-28T00:51:24;5.40;;;3.10;;
33993;SDS011;20673;48.980;8.138;2023-07-28T00:53:50;4.93;;;3.10;;
33993;SDS011;20673;48.980;8.138;2023-07-28T00:56:18;6.47;;;3.73;;
33993;SDS011;20673;48.980;8.138;2023-07-28T00:58:45;3.63;;;2.97;;
33993;SDS011;20673;48.980;8.138;2023-07-28T01:01:12;6.00;;;3.30;;
33993;SDS011;20673;48.980;8.138;2023-07-28T01:03:38;5.70;;;3.35;;
33993;SDS011;20673;48.980;8.138;2023-07-28T01:06:15;5.28;;;3.60;;
33993;SDS011;20673;48.980;8.138;2023-07-28T01:11:31;3.70;;;3.07;;
33993;SDS011;20673;48.980;8.138;2023-07-28T01:13:57;6.27;;;3.27;;
33993;SDS011;20673;48.980;8.138;2023-07-28T01:16:23;4.00;;;3.20;;
33993;SDS011;20673;48.980;8.138;2023-07-28T01:18:50;4.28;;;3.20;;
33993;SDS011;20673;48.980;8.138;2023-07-28T01:21:26;4.13;;;3.30;;
33993;SDS011;20673;48.980;8.138;2023-07-28T01:26:49;5.60;;;3.20;;
33993;SDS011;20673;48.980;8.138;2023-07-28T01:29:16;5.10;;;3.20;;
33993;SDS011;20673;48.980;8.138;2023-07-28T01:31:48;4.67;;;3.13;;
33993;SDS011;20673;48.980;8.138;2023-07-28T01:34:14;4.40;;;3.07;;
33993;SDS011;20673;48.980;8.138;2023-07-28T01:36:40;5.13;;;3.27;;
33993;SDS011;20673;48.980;8.138;2023-07-28T01:39:06;4.87;;;3.30;;
33993;SDS011;20673;48.980;8.138;2023-07-28T01:41:32;4.77;;;3.27;;
33993;SDS011;20673;48.980;8.138;2023-07-28T01:43:58;4.00;;;3.10;;
33993;SDS011;20673;48.980;8.138;2023-07-28T01:46:24;3.47;;;2.97;;
33993;SDS011;20673;48.980;8.138;2023-07-28T01:48:50;4.20;;;3.40;;
33993;SDS011;20673;48.980;8.138;2023-07-28T01:51:16;5.62;;;3.85;;
33993;SDS011;20673;48.980;8.138;2023-07-28T01:53:42;4.83;;;3.70;;
33993;SDS011;20673;48.980;8.138;2023-07-28T01:56:09;3.42;;;3.10;;
33993;SDS011;20673;48.980;8.138;2023-07-28T01:58:35;5.67;;;4.00;;
33993;SDS011;20673;48.980;8.138;2023-07-28T02:01:01;3.90;;;3.47;;
33993;SDS011;20673;48.980;8.138;2023-07-28T02:03:27;5.37;;;3.93;;
33993;SDS011;20673;48.980;8.138;2023-07-28T02:05:54;9.03;;;3.87;;
33993;SDS011;20673;48.980;8.138;2023-07-28T02:08:20;5.30;;;3.50;;
33993;SDS011;20673;48.980;8.138;2023-07-28T02:10:46;6.10;;;3.47;;
33993;SDS011;20673;48.980;8.138;2023-07-28T02:13:12;4.83;;;3.70;;
33993;SDS011;20673;48.980;8.138;2023-07-28T02:15:38;5.17;;;3.40;;
33993;SDS011;20673;48.980;8.138;2023-07-28T02:18:05;3.73;;;3.33;;
33993;SDS011;20673;48.980;8.138;2023-07-28T02:20:31;4.17;;;3.27;;
33993;SDS011;20673;48.980;8.138;2023-07-28T02:22:58;5.13;;;3.60;;
33993;SDS011;20673;48.980;8.138;2023-07-28T02:25:24;5.13;;;3.53;;
33993;SDS011;20673;48.980;8.138;2023-07-28T02:27:51;5.40;;;3.50;;
33993;SDS011;20673;48.980;8.138;2023-07-28T02:30:17;5.97;;;3.60;;
33993;SDS011;20673;48.980;8.138;2023-07-28T02:32:43;5.23;;;3.40;;
33993;SDS011;20673;48.980;8.138;2023-07-28T02:35:09;5.53;;;3.20;;
33993;SDS011;20673;48.980;8.138;2023-07-28T02:37:35;5.03;;;3.70;;
33993;SDS011;20673;48.980;8.138;2023-07-28T02:40:02;4.40;;;3.57;;
33993;SDS011;20673;48.980;8.138;2023-07-28T02:42:28;4.20;;;3.63;;
33993;SDS011;20673;48.980;8.138;2023-07-28T02:44:54;7.63;;;4.33;;
33993;SDS011;20673;48.980;8.138;2023-07-28T02:47:20;4.80;;;4.00;;
33993;SDS011;20673;48.980;8.138;2023-07-28T02:49:46;4.93;;;3.80;;
33993;SDS011;20673;48.980;8.138;2023-07-28T02:52:12;4.87;;;3.90;;
33993;SDS011;20673;48.980;8.138;2023-07-28T02:54:39;5.27;;;3.33;;
33993;SDS011;20673;48.980;8.138;2023-07-28T02:57:05;3.93;;;2.97;;
33993;SDS011;20673;48.980;8.138;2023-07-28T02:59:31;4.57;;;3.20;;
33993;SDS011;20673;48.980;8.138;2023-07-28T03:01:57;3.47;;;3.17;;
33993;SDS011;20673;48.980;8.138;2023-07-28T03:04:24;5.80;;;3.43;;
33993;SDS011;20673;48.980;8.138;2023-07-28T03:06:50;2.97;;;2.53;;
33993;SDS011;20673;48.980;8.138;2023-07-28T03:09:16;3.60;;;3.17;;
33993;SDS011;20673;48.980;8.138;2023-07-28T03:11:42;4.10;;;3.50;;
33993;SDS011;20673;48.980;8.138;2023-07-28T03:14:09;3.93;;;3.20;;
33993;SDS011;20673;48.980;8.138;2023-07-28T03:16:36;4.43;;;3.23;;
33993;SDS011;20673;48.980;8.138;2023-07-28T03:19:02;4.83;;;4.17;;
33993;SDS011;20673;48.980;8.138;2023-07-28T03:21:31;4.20;;;3.80;;
33993;SDS011;20673;48.980;8.138;2023-07-28T03:23:57;3.90;;;3.20;;
33993;SDS011;20673;48.980;8.138;2023-07-28T03:26:24;4.47;;;3.63;;
33993;SDS011;20673;48.980;8.138;2023-07-28T03:28:50;4.33;;;3.83;;
33993;SDS011;20673;48.980;8.138;2023-07-28T03:31:16;5.27;;;3.87;;
33993;SDS011;20673;48.980;8.138;2023-07-28T03:33:42;5.73;;;3.83;;
33993;SDS011;20673;48.980;8.138;2023-07-28T03:36:09;4.90;;;4.10;;
33993;SDS011;20673;48.980;8.138;2023-07-28T03:38:35;4.00;;;3.53;;
33993;SDS011;20673;48.980;8.138;2023-07-28T03:41:01;5.33;;;4.03;;
33993;SDS011;20673;48.980;8.138;2023-07-28T03:43:28;4.07;;;3.10;;
33993;SDS011;20673;48.980;8.138;2023-07-28T03:45:54;4.17;;;3.30;;
33993;SDS011;20673;48.980;8.138;2023-07-28T03:48:20;4.30;;;3.30;;
33993;SDS011;20673;48.980;8.138;2023-07-28T03:50:46;5.60;;;3.77;;
33993;SDS011;20673;48.980;8.138;2023-07-28T03:53:12;5.10;;;3.27;;
33993;SDS011;20673;48.980;8.138;2023-07-28T03:55:38;4.20;;;3.22;;
33993;SDS011;20673;48.980;8.138;2023-07-28T03:58:04;4.37;;;2.67;;
33993;SDS011;20673;48.980;8.138;2023-07-28T04:00:30;4.27;;;3.47;;
33993;SDS011;20673;48.980;8.138;2023-07-28T04:02:56;4.13;;;3.70;;
33993;SDS011;20673;48.980;8.138;2023-07-28T04:05:22;4.67;;;3.50;;
33993;SDS011;20673;48.980;8.138;2023-07-28T04:07:48;5.73;;;3.80;;
33993;SDS011;20673;48.980;8.138;2023-07-28T04:10:14;5.23;;;4.43;;
33993;SDS011;20673;48.980;8.138;2023-07-28T04:12:40;4.97;;;3.70;;
33993;SDS011;20673;48.980;8.138;2023-07-28T04:15:07;6.27;;;3.83;;
33993;SDS011;20673;48.980;8.138;2023-07-28T04:17:34;6.20;;;4.37;;
33993;SDS011;20673;48.980;8.138;2023-07-28T04:20:00;9.27;;;4.60;;
33993;SDS011;20673;48.980;8.138;2023-07-28T04:22:26;5.23;;;4.07;;
33993;SDS011;20673;48.980;8.138;2023-07-28T04:24:53;6.08;;;4.40;;
33993;SDS011;20673;48.980;8.138;2023-07-28T04:27:19;5.53;;;4.30;;
33993;SDS011;20673;48.980;8.138;2023-07-28T04:29:45;5.42;;;4.22;;
33993;SDS011;20673;48.980;8.138;2023-07-28T04:32:11;7.37;;;4.57;;
33993;SDS011;20673;48.980;8.138;2023-07-28T04:34:37;6.87;;;4.67;;
33993;SDS011;20673;48.980;8.138;2023-07-28T04:37:04;5.23;;;4.57;;
33993;SDS011;20673;48.980;8.138;2023-07-28T04:39:31;6.13;;;4.57;;
33993;SDS011;20673;48.980;8.138;2023-07-28T04:41:57;6.33;;;5.13;;
33993;SDS011;20673;48.980;8.138;2023-07-28T04:44:23;5.40;;;4.40;;
33993;SDS011;20673;48.980;8.138;2023-07-28T04:46:49;6.00;;;4.37;;
33993;SDS011;20673;48.980;8.138;2023-07-28T04:49:15;4.87;;;4.00;;
33993;SDS011;20673;48.980;8.138;2023-07-28T04:51:41;6.33;;;4.77;;
33993;SDS011;20673;48.980;8.138;2023-07-28T04:54:07;5.57;;;4.97;;
33993;SDS011;20673;48.980;8.138;2023-07-28T04:56:33;6.30;;;4.93;;
33993;SDS011;20673;48.980;8.138;2023-07-28T04:58:59;5.63;;;5.00;;
33993;SDS011;20673;48.980;8.138;2023-07-28T05:01:25;5.43;;;4.20;;
33993;SDS011;20673;48.980;8.138;2023-07-28T05:03:51;5.20;;;4.70;;
33993;SDS011;20673;48.980;8.138;2023-07-28T05:06:18;7.20;;;5.40;;
33993;SDS011;20673;48.980;8.138;2023-07-28T05:08:44;6.80;;;4.97;;
33993;SDS011;20673;48.980;8.138;2023-07-28T05:11:10;4.72;;;4.22;;
33993;SDS011;20673;48.980;8.138;2023-07-28T05:13:36;5.40;;;4.90;;
33993;SDS011;20673;48.980;8.138;2023-07-28T05:16:02;5.67;;;4.73;;
33993;SDS011;20673;48.980;8.138;2023-07-28T05:18:28;5.63;;;4.70;;
33993;SDS011;20673;48.980;8.138;2023-07-28T05:20:54;5.35;;;4.05;;
33993;SDS011;20673;48.980;8.138;2023-07-28T05:23:20;4.93;;;3.90;;
33993;SDS011;20673;48.980;8.138;2023-07-28T05:25:46;4.30;;;3.70;;
33993;SDS011;20673;48.980;8.138;2023-07-28T05:28:12;3.90;;;3.50;;
33993;SDS011;20673;48.980;8.138;2023-07-28T05:30:39;4.57;;;3.40;;
33993;SDS011;20673;48.980;8.138;2023-07-28T05:33:05;3.90;;;3.33;;
33993;SDS011;20673;48.980;8.138;2023-07-28T05:35:31;5.50;;;3.13;;
33993;SDS011;20673;48.980;8.138;2023-07-28T05:37:57;3.17;;;2.83;;
33993;SDS011;20673;48.980;8.138;2023-07-28T05:40:23;4.37;;;3.07;;
33993;SDS011;20673;48.980;8.138;2023-07-28T05:42:49;3.23;;;2.77;;
33993;SDS011;20673;48.980;8.138;2023-07-28T05:45:15;3.30;;;2.47;;
33993;SDS011;20673;48.980;8.138;2023-07-28T05:47:41;3.13;;;2.17;;
33993;SDS011;20673;48.980;8.138;2023-07-28T05:50:07;4.73;;;2.70;;
33993;SDS011;20673;48.980;8.138;2023-07-28T05:52:34;3.40;;;2.17;;
33993;SDS011;20673;48.980;8.138;2023-07-28T05:55:00;2.70;;;2.27;;
33993;SDS011;20673;48.980;8.138;2023-07-28T05:57:26;2.73;;;2.43;;
33993;SDS011;20673;48.980;8.138;2023-07-28T05:59:52;2.73;;;2.10;;
33993;SDS011;20673;48.980;8.138;2023-07-28T06:02:19;3.27;;;2.57;;
33993;SDS011;20673;48.980;8.138;2023-07-28T06:04:45;3.87;;;2.60;;
33993;SDS011;20673;48.980;8.138;2023-07-28T06:07:11;2.30;;;1.90;;
33993;SDS011;20673;48.980;8.138;2023-07-28T06:09:37;3.87;;;2.33;;
33993;SDS011;20673;48.980;8.138;2023-07-28T06:12:04;2.50;;;1.97;;
33993;SDS011;20673;48.980;8.138;2023-07-28T06:14:31;2.60;;;2.03;;
33993;SDS011;20673;48.980;8.138;2023-07-28T06:16:57;2.27;;;1.90;;
33993;SDS011;20673;48.980;8.138;2023-07-28T06:19:23;2.80;;;1.83;;
33993;SDS011;20673;48.980;8.138;2023-07-28T06:21:54;4.77;;;1.90;;
33993;SDS011;20673;48.980;8.138;2023-07-28T06:24:18;4.90;;;1.80;;
33993;SDS011;20673;48.980;8.138;2023-07-28T06:26:44;2.40;;;1.90;;
33993;SDS011;20673;48.980;8.138;2023-07-28T06:29:10;3.47;;;1.80;;
33993;SDS011;20673;48.980;8.138;2023-07-28T06:31:36;3.20;;;1.97;;
33993;SDS011;20673;48.980;8.138;2023-07-28T06:34:03;4.90;;;2.13;;
33993;SDS011;20673;48.980;8.138;2023-07-28T06:36:29;2.02;;;1.57;;
33993;SDS011;20673;48.980;8.138;2023-07-28T06:38:55;1.70;;;1.55;;
33993;SDS011;20673;48.980;8.138;2023-07-28T06:41:21;2.90;;;1.60;;
33993;SDS011;20673;48.980;8.138;2023-07-28T06:43:47;1.90;;;1.50;;
33993;SDS011;20673;48.980;8.138;2023-07-28T06:46:16;3.33;;;1.63;;
33993;SDS011;20673;48.980;8.138;2023-07-28T06:48:42;1.80;;;1.50;;
33993;SDS011;20673;48.980;8.138;2023-07-28T06:51:08;2.70;;;1.93;;
33993;SDS011;20673;48.980;8.138;2023-07-28T06:53:34;1.97;;;1.37;;
33993;SDS011;20673;48.980;8.138;2023-07-28T06:56:00;2.93;;;1.57;;
33993;SDS011;20673;48.980;8.138;2023-07-28T06:58:27;2.60;;;1.50;;
33993;SDS011;20673;48.980;8.138;2023-07-28T07:00:53;1.40;;;1.30;;
33993;SDS011;20673;48.980;8.138;2023-07-28T07:03:21;1.80;;;1.20;;
33993;SDS011;20673;48.980;8.138;2023-07-28T07:05:49;3.27;;;1.25;;
33993;SDS011;20673;48.980;8.138;2023-07-28T07:08:15;1.65;;;1.30;;
33993;SDS011;20673;48.980;8.138;2023-07-28T07:10:52;1.33;;;1.20;;
33993;SDS011;20673;48.980;8.138;2023-07-28T07:13:16;1.47;;;1.02;;
33993;SDS011;20673;48.980;8.138;2023-07-28T07:15:43;1.70;;;1.20;;
33993;SDS011;20673;48.980;8.138;2023-07-28T07:18:09;1.70;;;1.00;;
33993;SDS011;20673;48.980;8.138;2023-07-28T07:20:36;2.27;;;1.50;;
33993;SDS011;20673;48.980;8.138;2023-07-28T07:23:04;1.67;;;1.10;;
33993;SDS011;20673;48.980;8.138;2023-07-28T07:25:30;2.27;;;1.40;;
33993;SDS011;20673;48.980;8.138;2023-07-28T07:27:57;1.27;;;1.03;;
33993;SDS011;20673;48.980;8.138;2023-07-28T07:30:23;2.50;;;1.05;;
33993;SDS011;20673;48.980;8.138;2023-07-28T07:32:49;1.60;;;1.12;;
33993;SDS011;20673;48.980;8.138;2023-07-28T07:35:16;1.10;;;0.90;;
33993;SDS011;20673;48.980;8.138;2023-07-28T07:37:42;0.83;;;0.80;;
33993;SDS011;20673;48.980;8.138;2023-07-28T07:40:09;1.10;;;0.73;;
33993;SDS011;20673;48.980;8.138;2023-07-28T07:42:47;0.82;;;0.72;;
33993;SDS011;20673;48.980;8.138;2023-07-28T07:45:14;1.43;;;0.80;;
33993;SDS011;20673;48.980;8.138;2023-07-28T07:47:41;2.00;;;0.80;;
33993;SDS011;20673;48.980;8.138;2023-07-28T07:50:08;1.77;;;1.17;;
33993;SDS011;20673;48.980;8.138;2023-07-28T07:52:36;1.97;;;1.27;;
33993;SDS011;20673;48.980;8.138;2023-07-28T07:55:05;1.92;;;1.30;;
33993;SDS011;20673;48.980;8.138;2023-07-28T07:57:34;2.40;;;1.47;;
33993;SDS011;20673;48.980;8.138;2023-07-28T08:00:00;2.17;;;1.50;;
33993;SDS011;20673;48.980;8.138;2023-07-28T08:02:27;4.30;;;1.70;;
33993;SDS011;20673;48.980;8.138;2023-07-28T08:04:53;2.10;;;1.60;;
33993;SDS011;20673;48.980;8.138;2023-07-28T08:07:19;1.90;;;1.47;;
33993;SDS011;20673;48.980;8.138;2023-07-28T08:09:46;2.10;;;1.70;;
33993;SDS011;20673;48.980;8.138;2023-07-28T08:12:12;2.85;;;2.17;;
33993;SDS011;20673;48.980;8.138;2023-07-28T08:14:40;3.27;;;1.70;;
33993;SDS011;20673;48.980;8.138;2023-07-28T08:17:06;8.30;;;2.47;;
33993;SDS011;20673;48.980;8.138;2023-07-28T08:19:34;2.52;;;1.62;;
33993;SDS011;20673;48.980;8.138;2023-07-28T08:22:01;4.90;;;1.90;;
33993;SDS011;20673;48.980;8.138;2023-07-28T08:24:31;2.50;;;1.77;;
33993;SDS011;20673;48.980;8.138;2023-07-28T08:26:57;2.90;;;1.73;;
33993;SDS011;20673;48.980;8.138;2023-07-28T08:29:23;2.70;;;1.72;;
33993;SDS011;20673;48.980;8.138;2023-07-28T08:31:51;3.47;;;1.77;;
33993;SDS011;20673;48.980;8.138;2023-07-28T08:34:17;2.73;;;1.73;;
33993;SDS011;20673;48.980;8.138;2023-07-28T08:36:43;2.35;;;1.70;;
33993;SDS011;20673;48.980;8.138;2023-07-28T08:39:09;2.77;;;1.60;;
33993;SDS011;20673;48.980;8.138;2023-07-28T08:41:37;2.50;;;2.07;;
33993;SDS011;20673;48.980;8.138;2023-07-28T08:44:03;2.65;;;1.70;;
33993;SDS011;20673;48.980;8.138;2023-07-28T08:46:30;2.17;;;1.80;;
33993;SDS011;20673;48.980;8.138;2023-07-28T08:48:58;2.10;;;1.82;;
33993;SDS011;20673;48.980;8.138;2023-07-28T08:51:24;3.77;;;2.12;;
33993;SDS011;20673;48.980;8.138;2023-07-28T08:53:50;2.22;;;1.95;;
33993;SDS011;20673;48.980;8.138;2023-07-28T08:56:16;2.80;;;1.87;;
33993;SDS011;20673;48.980;8.138;2023-07-28T08:58:44;3.80;;;1.90;;
33993;SDS011;20673;48.980;8.138;2023-07-28T09:01:10;4.67;;;2.05;;
33993;SDS011;20673;48.980;8.138;2023-07-28T09:03:41;2.23;;;2.00;;
33993;SDS011;20673;48.980;8.138;2023-07-28T09:06:07;2.50;;;1.98;;
33993;SDS011;20673;48.980;8.138;2023-07-28T09:08:35;3.33;;;1.98;;
33993;SDS011;20673;48.980;8.138;2023-07-28T09:11:03;2.47;;;2.27;;
33993;SDS011;20673;48.980;8.138;2023-07-28T09:13:39;3.15;;;2.80;;
33993;SDS011;20673;48.980;8.138;2023-07-28T09:16:16;7.33;;;3.02;;
33993;SDS011;20673;48.980;8.138;2023-07-28T09:18:43;5.80;;;3.25;;
33993;SDS011;20673;48.980;8.138;2023-07-28T09:21:16;3.62;;;2.98;;
33993;SDS011;20673;48.980;8.138;2023-07-28T09:23:49;6.63;;;2.80;;
33993;SDS011;20673;48.980;8.138;2023-07-28T09:26:16;3.30;;;2.53;;
33993;SDS011;20673;48.980;8.138;2023-07-28T09:28:43;4.10;;;2.87;;
33993;SDS011;20673;48.980;8.138;2023-07-28T09:31:09;3.63;;;3.07;;
33993;SDS011;20673;48.980;8.138;2023-07-28T09:33:36;4.92;;;2.75;;
33993;SDS011;20673;48.980;8.138;2023-07-28T09:36:08;3.37;;;2.80;;
33993;SDS011;20673;48.980;8.138;2023-07-28T09:38:37;6.78;;;3.20;;
33993;SDS011;20673;48.980;8.138;2023-07-28T09:41:07;3.47;;;2.62;;
33993;SDS011;20673;48.980;8.138;2023-07-28T09:43:40;5.25;;;2.85;;
33993;SDS011;20673;48.980;8.138;2023-07-28T09:46:09;2.98;;;2.52;;
33993;SDS011;20673;48.980;8.138;2023-07-28T09:48:37;3.27;;;2.95;;
33993;SDS011;20673;48.980;8.138;2023-07-28T09:51:06;4.10;;;2.83;;
33993;SDS011;20673;48.980;8.138;2023-07-28T09:53:41;3.20;;;2.90;;
33993;SDS011;20673;48.980;8.138;2023-07-28T09:56:18;3.98;;;2.33;;
33993;SDS011;20673;48.980;8.138;2023-07-28T09:58:49;3.85;;;2.47;;
33993;SDS011;20673;48.980;8.138;2023-07-28T10:01:18;3.62;;;2.77;;
33993;SDS011;20673;48.980;8.138;2023-07-28T10:03:47;5.17;;;3.15;;
33993;SDS011;20673;48.980;8.138;2023-07-28T10:06:14;3.98;;;3.02;;
33993;SDS011;20673;48.980;8.138;2023-07-28T10:08:43;4.90;;;3.30;;
33993;SDS011;20673;48.980;8.138;2023-07-28T10:11:11;3.87;;;3.20;;
33993;SDS011;20673;48.980;8.138;2023-07-28T10:13:40;4.00;;;2.95;;
33993;SDS011;20673;48.980;8.138;2023-07-28T10:16:08;4.80;;;3.30;;
33993;SDS011;20673;48.980;8.138;2023-07-28T10:18:36;6.28;;;2.92;;
33993;SDS011;20673;48.980;8.138;2023-07-28T10:21:06;4.35;;;2.77;;
33993;SDS011;20673;48.980;8.138;2023-07-28T10:23:38;4.28;;;2.90;;
33993;SDS011;20673;48.980;8.138;2023-07-28T10:26:05;3.40;;;2.40;;
33993;SDS011;20673;48.980;8.138;2023-07-28T10:31:08;2.77;;;2.40;;
33993;SDS011;20673;48.980;8.138;2023-07-28T10:33:40;3.27;;;2.80;;
33993;SDS011;20673;48.980;8.138;2023-07-28T10:36:13;4.00;;;2.55;;
33993;SDS011;20673;48.980;8.138;2023-07-28T10:38:45;3.17;;;2.80;;
33993;SDS011;20673;48.980;8.138;2023-07-28T10:41:15;3.92;;;2.30;;
33993;SDS011;20673;48.980;8.138;2023-07-28T10:43:44;3.90;;;2.52;;
33993;SDS011;20673;48.980;8.138;2023-07-28T10:46:14;3.15;;;2.22;;
33993;SDS011;20673;48.980;8.138;2023-07-28T10:48:42;3.52;;;2.30;;
33993;SDS011;20673;48.980;8.138;2023-07-28T10:51:11;4.12;;;2.67;;
33993;SDS011;20673;48.980;8.138;2023-07-28T10:53:51;5.67;;;2.87;;
33993;SDS011;20673;48.980;8.138;2023-07-28T10:56:20;3.17;;;2.52;;
33993;SDS011;20673;48.980;8.138;2023-07-28T10:58:55;4.47;;;2.37;;
33993;SDS011;20673;48.980;8.138;2023-07-28T11:01:30;4.70;;;2.02;;
33993;SDS011;20673;48.980;8.138;2023-07-28T11:04:06;2.90;;;2.55;;
33993;SDS011;20673;48.980;8.138;2023-07-28T11:06:42;3.77;;;2.40;;
33993;SDS011;20673;48.980;8.138;2023-07-28T11:09:11;6.05;;;2.75;;
33993;SDS011;20673;48.980;8.138;2023-07-28T11:11:40;4.17;;;2.37;;
33993;SDS011;20673;48.980;8.138;2023-07-28T11:14:07;4.03;;;2.77;;
33993;SDS011;20673;48.980;8.138;2023-07-28T11:16:35;2.25;;;1.92;;
33993;SDS011;20673;48.980;8.138;2023-07-28T11:19:03;2.95;;;1.85;;
33993;SDS011;20673;48.980;8.138;2023-07-28T11:21:39;5.37;;;2.20;;
33993;SDS011;20673;48.980;8.138;2023-07-28T11:24:07;2.55;;;2.00;;
33993;SDS011;20673;48.980;8.138;2023-07-28T11:26:35;2.70;;;2.45;;
33993;SDS011;20673;48.980;8.138;2023-07-28T11:29:03;3.33;;;2.30;;
33993;SDS011;20673;48.980;8.138;2023-07-28T11:31:30;4.22;;;2.40;;
33993;SDS011;20673;48.980;8.138;2023-07-28T11:33:56;3.33;;;2.45;;
33993;SDS011;20673;48.980;8.138;2023-07-28T11:36:28;3.65;;;2.05;;
33993;SDS011;20673;48.980;8.138;2023-07-28T11:38:53;4.05;;;2.22;;
33993;SDS011;20673;48.980;8.138;2023-07-28T11:41:21;3.30;;;2.52;;
33993;SDS011;20673;48.980;8.138;2023-07-28T11:43:49;4.58;;;2.47;;
33993;SDS011;20673;48.980;8.138;2023-07-28T11:51:49;4.60;;;2.60;;
33993;SDS011;20673;48.980;8.138;2023-07-28T11:54:15;3.83;;;2.77;;
33993;SDS011;20673;48.980;8.138;2023-07-28T11:56:45;3.08;;;2.67;;
33993;SDS011;20673;48.980;8.138;2023-07-28T11:59:16;4.92;;;2.92;;
33993;SDS011;20673;48.980;8.138;2023-07-28T12:02:24;6.05;;;2.85;;
33993;SDS011;20673;48.980;8.138;2023-07-28T12:04:27;5.62;;;3.30;;
33993;SDS011;20673;48.980;8.138;2023-07-28T12:07:13;3.93;;;2.83;;
33993;SDS011;20673;48.980;8.138;2023-07-28T12:12:26;4.90;;;3.70;;
33993;SDS011;20673;48.980;8.138;2023-07-28T12:14:56;3.75;;;3.30;;
33993;SDS011;20673;48.980;8.138;2023-07-28T12:17:28;4.90;;;3.43;;
33993;SDS011;20673;48.980;8.138;2023-07-28T12:20:03;5.30;;;3.57;;
33993;SDS011;20673;48.980;8.138;2023-07-28T12:22:42;4.87;;;3.42;;
33993;SDS011;20673;48.980;8.138;2023-07-28T12:25:11;5.22;;;4.00;;
33993;SDS011;20673;48.980;8.138;2023-07-28T12:27:38;6.20;;;3.83;;
33993;SDS011;20673;48.980;8.138;2023-07-28T12:30:04;6.63;;;4.43;;
33993;SDS011;20673;48.980;8.138;2023-07-28T12:32:33;7.35;;;4.35;;
33993;SDS011;20673;48.980;8.138;2023-07-28T12:34:59;4.30;;;3.53;;
33993;SDS011;20673;48.980;8.138;2023-07-28T12:37:26;4.95;;;4.05;;
33993;SDS011;20673;48.980;8.138;2023-07-28T12:39:52;4.53;;;3.87;;
33993;SDS011;20673;48.980;8.138;2023-07-28T12:42:18;5.08;;;3.58;;
33993;SDS011;20673;48.980;8.138;2023-07-28T12:44:45;5.23;;;3.60;;
33993;SDS011;20673;48.980;8.138;2023-07-28T12:47:12;4.50;;;3.67;;
33993;SDS011;20673;48.980;8.138;2023-07-28T12:49:38;4.78;;;3.50;;
33993;SDS011;20673;48.980;8.138;2023-07-28T12:52:05;3.77;;;3.37;;
33993;SDS011;20673;48.980;8.138;2023-07-28T12:54:35;5.25;;;3.65;;
33993;SDS011;20673;48.980;8.138;2023-07-28T12:57:01;4.93;;;3.40;;
33993;SDS011;20673;48.980;8.138;2023-07-28T12:59:27;4.07;;;3.50;;
33993;SDS011;20673;48.980;8.138;2023-07-28T13:01:55;4.23;;;3.63;;
33993;SDS011;20673;48.980;8.138;2023-07-28T13:04:21;4.80;;;3.77;;
33993;SDS011;20673;48.980;8.138;2023-07-28T13:06:48;6.10;;;3.73;;
33993;SDS011;20673;48.980;8.138;2023-07-28T13:09:15;4.33;;;3.90;;
33993;SDS011;20673;48.980;8.138;2023-07-28T13:11:41;5.40;;;4.77;;
33993;SDS011;20673;48.980;8.138;2023-07-28T13:14:07;5.33;;;3.90;;
33993;SDS011;20673;48.980;8.138;2023-07-28T13:16:33;8.20;;;5.28;;
33993;SDS011;20673;48.980;8.138;2023-07-28T13:19:00;5.92;;;4.60;;
33993;SDS011;20673;48.980;8.138;2023-07-28T13:21:26;6.87;;;4.42;;
33993;SDS011;20673;48.980;8.138;2023-07-28T13:23:52;5.57;;;3.90;;
33993;SDS011;20673;48.980;8.138;2023-07-28T13:26:18;6.53;;;4.70;;
33993;SDS011;20673;48.980;8.138;2023-07-28T13:28:45;6.05;;;4.47;;
33993;SDS011;20673;48.980;8.138;2023-07-28T13:31:19;7.57;;;4.53;;
33993;SDS011;20673;48.980;8.138;2023-07-28T13:33:44;4.80;;;4.00;;
33993;SDS011;20673;48.980;8.138;2023-07-28T13:36:11;6.35;;;4.12;;
33993;SDS011;20673;48.980;8.138;2023-07-28T13:38:37;4.90;;;3.93;;
33993;SDS011;20673;48.980;8.138;2023-07-28T13:41:04;4.30;;;3.40;;
33993;SDS011;20673;48.980;8.138;2023-07-28T13:43:32;5.00;;;3.30;;
33993;SDS011;20673;48.980;8.138;2023-07-28T13:46:03;5.00;;;3.75;;
33993;SDS011;20673;48.980;8.138;2023-07-28T13:48:30;4.17;;;3.17;;
33993;SDS011;20673;48.980;8.138;2023-07-28T13:50:57;4.80;;;3.27;;
33993;SDS011;20673;48.980;8.138;2023-07-28T13:53:23;4.13;;;3.73;;
33993;SDS011;20673;48.980;8.138;2023-07-28T13:55:50;3.33;;;2.83;;
33993;SDS011;20673;48.980;8.138;2023-07-28T13:58:17;3.98;;;3.55;;
33993;SDS011;20673;48.980;8.138;2023-07-28T14:00:43;3.40;;;3.00;;
33993;SDS011;20673;48.980;8.138;2023-07-28T14:03:09;3.90;;;3.00;;
33993;SDS011;20673;48.980;8.138;2023-07-28T14:05:36;3.23;;;2.63;;
33993;SDS011;20673;48.980;8.138;2023-07-28T14:08:02;3.50;;;2.97;;
33993;SDS011;20673;48.980;8.138;2023-07-28T14:10:28;3.17;;;2.47;;
33993;SDS011;20673;48.980;8.138;2023-07-28T14:12:54;3.57;;;2.80;;
33993;SDS011;20673;48.980;8.138;2023-07-28T14:15:20;3.27;;;2.97;;
33993;SDS011;20673;48.980;8.138;2023-07-28T14:17:47;4.17;;;2.93;;
33993;SDS011;20673;48.980;8.138;2023-07-28T14:20:13;4.23;;;2.63;;
33993;SDS011;20673;48.980;8.138;2023-07-28T14:22:39;3.70;;;2.63;;
33993;SDS011;20673;48.980;8.138;2023-07-28T14:25:05;3.47;;;2.90;;
33993;SDS011;20673;48.980;8.138;2023-07-28T14:27:32;3.62;;;3.15;;
33993;SDS011;20673;48.980;8.138;2023-07-28T14:29:59;3.37;;;2.33;;
33993;SDS011;20673;48.980;8.138;2023-07-28T14:32:25;3.00;;;2.65;;
33993;SDS011;20673;48.980;8.138;2023-07-28T14:34:54;5.28;;;3.08;;
33993;SDS011;20673;48.980;8.138;2023-07-28T14:37:21;4.03;;;2.95;;
33993;SDS011;20673;48.980;8.138;2023-07-28T14:39:47;5.20;;;2.85;;
33993;SDS011;20673;48.980;8.138;2023-07-28T14:42:13;3.72;;;2.55;;
33993;SDS011;20673;48.980;8.138;2023-07-28T14:44:40;3.20;;;2.80;;
33993;SDS011;20673;48.980;8.138;2023-07-28T14:47:06;3.17;;;2.67;;
33993;SDS011;20673;48.980;8.138;2023-07-28T14:49:32;3.83;;;2.60;;
33993;SDS011;20673;48.980;8.138;2023-07-28T14:51:58;5.97;;;2.50;;
33993;SDS011;20673;48.980;8.138;2023-07-28T14:54:24;2.95;;;2.65;;
33993;SDS011;20673;48.980;8.138;2023-07-28T14:56:51;4.37;;;3.65;;
33993;SDS011;20673;48.980;8.138;2023-07-28T14:59:17;3.40;;;2.70;;
33993;SDS011;20673;48.980;8.138;2023-07-28T15:01:43;3.50;;;2.87;;
33993;SDS011;20673;48.980;8.138;2023-07-28T15:04:10;3.60;;;2.67;;